createdAt,value
2023-08-29T00:00:06.509Z,17.29
2023-08-29T00:00:17.543Z,17.29
2023-08-29T00:00:28.526Z,17.28
2023-08-29T00:00:39.292Z,17.26
2023-08-29T00:00:50.315Z,17.26
2023-08-29T00:01:01.279Z,17.26
2023-08-29T00:01:12.072Z,17.25
2023-08-29T00:01:23.128Z,17.25
2023-08-29T00:01:34.147Z,17.26
2023-08-29T00:01:44.993Z,17.26
2023-08-29T00:01:56.061Z,17.29
2023-08-29T00:02:07.003Z,17.28
2023-08-29T00:02:17.757Z,17.26
2023-08-29T00:02:28.819Z,17.26
2023-08-29T00:02:39.843Z,17.26
2023-08-29T00:02:50.610Z,17.30
2023-08-29T00:03:01.656Z,17.22
2023-08-29T00:03:12.591Z,17.26
2023-08-29T00:03:23.408Z,17.30
2023-08-29T00:03:34.470Z,17.26
2023-08-29T00:03:45.418Z,17.23
2023-08-29T00:03:56.205Z,17.28
2023-08-29T00:04:07.248Z,17.26
2023-08-29T00:04:18.193Z,17.25
2023-08-29T00:04:28.970Z,17.29
2023-08-29T00:04:40.009Z,17.26
2023-08-29T00:04:51.044Z,17.22
2023-08-29T00:05:01.831Z,17.28
2023-08-29T00:05:12.882Z,17.26
2023-08-29T00:05:23.844Z,17.23
2023-08-29T00:05:34.627Z,17.23
2023-08-29T00:05:45.146Z,17.23
2023-08-29T00:05:56.103Z,17.29
2023-08-29T00:06:06.866Z,17.29
2023-08-29T00:06:17.913Z,17.25
2023-08-29T00:06:28.876Z,17.22
2023-08-29T00:06:39.668Z,17.26
2023-08-29T00:06:50.185Z,17.25
2023-08-29T00:07:01.149Z,17.25
2023-08-29T00:07:11.924Z,17.26
2023-08-29T00:07:22.968Z,17.25
2023-08-29T00:07:33.945Z,17.22
2023-08-29T00:07:44.705Z,17.25
2023-08-29T00:07:55.750Z,17.25
2023-08-29T00:08:07.072Z,17.26
2023-08-29T00:08:17.372Z,17.26
2023-08-29T00:08:28.409Z,17.25
2023-08-29T00:08:39.401Z,17.25
2023-08-29T00:08:50.174Z,17.25
2023-08-29T00:09:01.250Z,17.22
2023-08-29T00:09:12.224Z,17.23
2023-08-29T00:09:22.987Z,17.26
2023-08-29T00:09:34.047Z,17.26
2023-08-29T00:09:45.005Z,17.26
2023-08-29T00:09:55.773Z,17.26
2023-08-29T00:10:06.835Z,17.26
2023-08-29T00:10:17.786Z,17.25
2023-08-29T00:10:28.548Z,17.28
2023-08-29T00:10:39.591Z,17.28
2023-08-29T00:10:50.580Z,17.26
2023-08-29T00:11:01.326Z,17.26
2023-08-29T00:11:12.366Z,17.26
2023-08-29T00:11:23.329Z,17.26
2023-08-29T00:11:34.099Z,17.26
2023-08-29T00:11:45.143Z,17.26
2023-08-29T00:11:56.103Z,17.25
2023-08-29T00:12:06.872Z,17.29
2023-08-29T00:12:17.913Z,17.26
2023-08-29T00:12:28.883Z,17.23
2023-08-29T00:12:39.644Z,17.26
2023-08-29T00:12:50.685Z,17.23
2023-08-29T00:13:01.651Z,17.23
2023-08-29T00:13:12.411Z,17.25
2023-08-29T00:13:23.457Z,17.23
2023-08-29T00:13:34.423Z,17.26
2023-08-29T00:13:45.194Z,17.23
2023-08-29T00:13:56.260Z,17.23
2023-08-29T00:14:07.211Z,17.26
2023-08-29T00:14:18.016Z,17.22
2023-08-29T00:14:29.031Z,17.25
2023-08-29T00:14:40.006Z,17.23
2023-08-29T00:14:50.785Z,17.25
2023-08-29T00:15:01.815Z,17.22
2023-08-29T00:15:12.779Z,17.22
2023-08-29T00:15:23.542Z,17.22
2023-08-29T00:15:34.585Z,17.23
2023-08-29T00:15:45.555Z,17.18
2023-08-29T00:15:56.362Z,17.25
2023-08-29T00:16:07.409Z,17.22
2023-08-29T00:16:18.390Z,17.25
2023-08-29T00:16:29.139Z,17.25
2023-08-29T00:16:40.206Z,17.17
2023-08-29T00:16:51.137Z,17.18
2023-08-29T00:17:01.908Z,17.22
2023-08-29T00:17:12.962Z,17.18
2023-08-29T00:17:24.005Z,17.18
2023-08-29T00:17:34.763Z,17.20
2023-08-29T00:17:45.784Z,17.18
2023-08-29T00:17:56.740Z,17.18
2023-08-29T00:18:07.899Z,17.20
2023-08-29T00:18:18.531Z,17.17
2023-08-29T00:18:29.501Z,17.18
2023-08-29T00:18:40.263Z,17.20
2023-08-29T00:18:51.308Z,17.15
2023-08-29T00:19:02.283Z,17.13
2023-08-29T00:19:13.048Z,17.20
2023-08-29T00:19:24.107Z,17.15
2023-08-29T00:19:35.056Z,17.17
2023-08-29T00:19:45.829Z,17.18
2023-08-29T00:19:56.875Z,17.20
2023-08-29T00:20:07.858Z,17.15
2023-08-29T00:20:18.682Z,17.20
2023-08-29T00:20:29.716Z,17.17
2023-08-29T00:20:40.682Z,17.17
2023-08-29T00:20:51.448Z,17.18
2023-08-29T00:21:02.490Z,17.14
2023-08-29T00:21:13.470Z,17.17
2023-08-29T00:21:24.218Z,17.15
2023-08-29T00:21:35.268Z,17.14
2023-08-29T00:21:46.232Z,17.11
2023-08-29T00:21:56.989Z,17.14
2023-08-29T00:22:08.046Z,17.13
2023-08-29T00:22:19.001Z,17.11
2023-08-29T00:22:29.763Z,17.11
2023-08-29T00:22:40.806Z,17.13
2023-08-29T00:22:51.774Z,17.14
2023-08-29T00:23:02.535Z,17.13
2023-08-29T00:23:13.589Z,17.10
2023-08-29T00:23:24.551Z,17.10
2023-08-29T00:23:35.311Z,17.13
2023-08-29T00:23:46.358Z,17.10
2023-08-29T00:23:57.328Z,17.07
2023-08-29T00:24:08.084Z,17.08
2023-08-29T00:24:19.140Z,17.06
2023-08-29T00:24:30.104Z,17.08
2023-08-29T00:24:40.874Z,17.06
2023-08-29T00:24:51.922Z,17.06
2023-08-29T00:25:02.882Z,17.06
2023-08-29T00:25:13.648Z,17.06
2023-08-29T00:25:24.694Z,17.06
2023-08-29T00:25:35.661Z,17.06
2023-08-29T00:25:46.426Z,17.08
2023-08-29T00:25:57.494Z,17.04
2023-08-29T00:26:08.437Z,17.06
2023-08-29T00:26:19.201Z,17.04
2023-08-29T00:26:30.248Z,17.03
2023-08-29T00:26:41.214Z,17.03
2023-08-29T00:26:51.975Z,17.06
2023-08-29T00:27:03.025Z,17.04
2023-08-29T00:27:13.993Z,17.03
2023-08-29T00:27:24.768Z,16.99
2023-08-29T00:27:35.805Z,17.03
2023-08-29T00:27:46.757Z,17.00
2023-08-29T00:27:57.607Z,17.00
2023-08-29T00:28:08.651Z,17.00
2023-08-29T00:28:19.620Z,17.00
2023-08-29T00:28:30.379Z,17.06
2023-08-29T00:28:41.433Z,17.03
2023-08-29T00:28:52.389Z,16.96
2023-08-29T00:29:03.152Z,17.04
2023-08-29T00:29:14.204Z,17.04
2023-08-29T00:29:25.178Z,17.06
2023-08-29T00:29:35.943Z,17.00
2023-08-29T00:29:46.981Z,17.00
2023-08-29T00:29:57.980Z,16.99
2023-08-29T00:30:08.750Z,17.04
2023-08-29T00:30:19.791Z,17.00
2023-08-29T00:30:30.761Z,16.99
2023-08-29T00:30:44.609Z,16.99
2023-08-29T00:30:52.505Z,16.98
2023-08-29T00:31:03.489Z,16.99
2023-08-29T00:31:14.257Z,17.04
2023-08-29T00:31:25.301Z,17.03
2023-08-29T00:31:36.266Z,17.00
2023-08-29T00:31:47.094Z,17.03
2023-08-29T00:31:57.580Z,17.00
2023-08-29T00:32:08.540Z,16.98
2023-08-29T00:32:19.298Z,17.07
2023-08-29T00:32:30.381Z,17.03
2023-08-29T00:32:41.335Z,17.03
2023-08-29T00:32:52.119Z,17.07
2023-08-29T00:33:03.203Z,17.03
2023-08-29T00:33:14.195Z,17.03
2023-08-29T00:33:24.961Z,17.06
2023-08-29T00:33:36.006Z,16.98
2023-08-29T00:33:46.968Z,17.04
2023-08-29T00:33:57.729Z,17.06
2023-08-29T00:34:08.772Z,17.00
2023-08-29T00:34:19.740Z,17.00
2023-08-29T00:34:30.544Z,17.06
2023-08-29T00:34:41.564Z,17.04
2023-08-29T00:34:52.530Z,17.04
2023-08-29T00:35:03.293Z,17.03
2023-08-29T00:35:14.339Z,17.03
2023-08-29T00:35:25.306Z,17.00
2023-08-29T00:35:36.081Z,17.06
2023-08-29T00:35:47.115Z,16.99
2023-08-29T00:35:58.077Z,17.06
2023-08-29T00:36:08.844Z,17.00
2023-08-29T00:36:19.892Z,17.07
2023-08-29T00:36:30.853Z,16.99
2023-08-29T00:36:41.625Z,17.04
2023-08-29T00:36:52.670Z,17.03
2023-08-29T00:37:03.631Z,17.04
2023-08-29T00:37:14.399Z,17.07
2023-08-29T00:37:25.452Z,17.06
2023-08-29T00:37:36.405Z,17.07
2023-08-29T00:37:47.170Z,17.04
2023-08-29T00:37:58.221Z,17.00
2023-08-29T00:38:09.346Z,16.99
2023-08-29T00:38:20.156Z,17.06
2023-08-29T00:38:31.193Z,16.99
2023-08-29T00:38:42.152Z,17.04
2023-08-29T00:38:52.917Z,17.03
2023-08-29T00:39:03.969Z,16.99
2023-08-29T00:39:14.932Z,16.96
2023-08-29T00:39:25.695Z,17.00
2023-08-29T00:39:36.750Z,17.00
2023-08-29T00:39:47.722Z,16.99
2023-08-29T00:39:58.492Z,17.04
2023-08-29T00:40:09.528Z,16.99
2023-08-29T00:40:20.493Z,16.99
2023-08-29T00:40:31.256Z,16.99
2023-08-29T00:40:42.302Z,16.98
2023-08-29T00:40:53.261Z,16.96
2023-08-29T00:41:04.046Z,17.03
2023-08-29T00:41:15.071Z,16.99
2023-08-29T00:41:26.040Z,16.96
2023-08-29T00:41:36.809Z,17.03
2023-08-29T00:41:47.848Z,16.99
2023-08-29T00:41:58.813Z,16.99
2023-08-29T00:42:09.576Z,17.00
2023-08-29T00:42:20.621Z,17.03
2023-08-29T00:42:31.614Z,16.96
2023-08-29T00:42:42.353Z,16.99
2023-08-29T00:42:53.397Z,16.98
2023-08-29T00:43:04.370Z,16.96
2023-08-29T00:43:15.138Z,16.99
2023-08-29T00:43:26.171Z,17.04
2023-08-29T00:43:37.144Z,16.98
2023-08-29T00:43:47.907Z,17.00
2023-08-29T00:43:58.952Z,16.99
2023-08-29T00:44:09.915Z,17.00
2023-08-29T00:44:20.688Z,17.00
2023-08-29T00:44:31.730Z,16.98
2023-08-29T00:44:42.717Z,16.99
2023-08-29T00:44:53.524Z,16.99
2023-08-29T00:45:04.568Z,17.00
2023-08-29T00:45:15.536Z,16.99
2023-08-29T00:45:26.324Z,16.99
2023-08-29T00:45:37.385Z,16.99
2023-08-29T00:45:48.366Z,16.98
2023-08-29T00:45:59.157Z,16.99
2023-08-29T00:46:09.729Z,16.99
2023-08-29T00:46:20.687Z,17.00
2023-08-29T00:46:31.433Z,17.03
2023-08-29T00:46:42.473Z,17.03
2023-08-29T00:46:53.435Z,17.03
2023-08-29T00:47:04.207Z,16.99
2023-08-29T00:47:15.249Z,16.98
2023-08-29T00:47:26.270Z,17.00
2023-08-29T00:47:37.028Z,16.99
2023-08-29T00:47:48.046Z,16.99
2023-08-29T00:47:59.012Z,17.00
2023-08-29T00:48:10.294Z,17.03
2023-08-29T00:48:20.581Z,17.00
2023-08-29T00:48:31.546Z,17.03
2023-08-29T00:48:42.315Z,16.99
2023-08-29T00:48:53.359Z,17.03
2023-08-29T00:49:04.316Z,17.06
2023-08-29T00:49:15.086Z,17.06
2023-08-29T00:49:26.131Z,17.06
2023-08-29T00:49:37.125Z,17.06
2023-08-29T00:49:47.865Z,17.06
2023-08-29T00:49:58.912Z,17.03
2023-08-29T00:50:09.882Z,17.06
2023-08-29T00:50:20.643Z,17.04
2023-08-29T00:50:31.688Z,17.04
2023-08-29T00:50:42.653Z,17.03
2023-08-29T00:50:53.414Z,16.99
2023-08-29T00:51:04.463Z,16.99
2023-08-29T00:51:15.427Z,17.00
2023-08-29T00:51:26.199Z,17.04
2023-08-29T00:51:37.234Z,17.07
2023-08-29T00:51:48.201Z,17.04
2023-08-29T00:51:58.965Z,17.07
2023-08-29T00:52:10.009Z,17.04
2023-08-29T00:52:20.975Z,17.03
2023-08-29T00:52:31.742Z,17.03
2023-08-29T00:52:42.788Z,17.04
2023-08-29T00:52:53.751Z,17.04
2023-08-29T00:53:04.530Z,17.08
2023-08-29T00:53:15.576Z,17.06
2023-08-29T00:53:26.549Z,17.03
2023-08-29T00:53:37.303Z,17.04
2023-08-29T00:53:48.346Z,17.03
2023-08-29T00:53:59.309Z,17.06
2023-08-29T00:54:10.079Z,17.11
2023-08-29T00:54:21.120Z,17.00
2023-08-29T00:54:32.077Z,17.07
2023-08-29T00:54:42.859Z,17.06
2023-08-29T00:54:53.898Z,17.04
2023-08-29T00:55:04.864Z,17.06
2023-08-29T00:55:15.646Z,17.08
2023-08-29T00:55:26.692Z,17.06
2023-08-29T00:55:37.652Z,17.08
2023-08-29T00:55:48.416Z,17.04
2023-08-29T00:55:59.462Z,17.07
2023-08-29T00:56:10.448Z,17.06
2023-08-29T00:56:21.201Z,17.06
2023-08-29T00:56:32.233Z,17.06
2023-08-29T00:56:43.204Z,17.04
2023-08-29T00:56:53.970Z,17.07
2023-08-29T00:57:05.017Z,17.07
2023-08-29T00:57:15.982Z,17.03
2023-08-29T00:57:26.750Z,17.06
2023-08-29T00:57:37.792Z,17.07
2023-08-29T00:57:48.759Z,17.06
2023-08-29T00:57:59.535Z,17.08
2023-08-29T00:58:10.081Z,17.04
2023-08-29T00:58:21.053Z,17.07
2023-08-29T00:58:31.826Z,17.07
2023-08-29T00:58:42.862Z,17.07
2023-08-29T00:58:53.826Z,17.06
2023-08-29T00:59:04.583Z,17.06
2023-08-29T00:59:15.640Z,17.07
2023-08-29T00:59:26.595Z,17.07
2023-08-29T00:59:37.364Z,17.06
2023-08-29T00:59:48.429Z,17.07
2023-08-29T00:59:59.382Z,17.08
2023-08-29T01:00:10.150Z,17.06
2023-08-29T01:00:21.201Z,17.06
2023-08-29T01:00:32.180Z,17.06
2023-08-29T01:00:42.929Z,17.10
2023-08-29T01:00:53.977Z,16.99
2023-08-29T01:01:04.963Z,17.03
2023-08-29T01:01:15.730Z,17.07
2023-08-29T01:01:26.832Z,17.07
2023-08-29T01:01:37.808Z,17.06
2023-08-29T01:01:48.688Z,17.10
2023-08-29T01:01:59.722Z,17.04
2023-08-29T01:02:10.693Z,17.04
2023-08-29T01:02:21.452Z,17.03
2023-08-29T01:02:32.569Z,17.04
2023-08-29T01:02:43.518Z,17.04
2023-08-29T01:02:54.307Z,17.07
2023-08-29T01:03:05.404Z,17.03
2023-08-29T01:03:16.449Z,17.00
2023-08-29T01:03:27.270Z,17.06
2023-08-29T01:03:38.314Z,17.00
2023-08-29T01:03:49.289Z,17.03
2023-08-29T01:04:00.127Z,17.06
2023-08-29T01:04:11.149Z,16.99
2023-08-29T01:04:22.124Z,16.99
2023-08-29T01:04:32.883Z,17.06
2023-08-29T01:04:43.926Z,16.98
2023-08-29T01:04:54.907Z,17.00
2023-08-29T01:05:05.674Z,17.04
2023-08-29T01:05:16.709Z,17.03
2023-08-29T01:05:27.689Z,17.00
2023-08-29T01:05:38.454Z,17.00
2023-08-29T01:05:49.500Z,16.98
2023-08-29T01:06:00.464Z,16.95
2023-08-29T01:06:11.234Z,16.98
2023-08-29T01:06:22.275Z,16.93
2023-08-29T01:06:33.256Z,16.96
2023-08-29T01:06:44.005Z,16.95
2023-08-29T01:06:55.050Z,16.95
2023-08-29T01:07:06.015Z,16.98
2023-08-29T01:07:16.783Z,16.95
2023-08-29T01:07:27.828Z,16.93
2023-08-29T01:07:38.787Z,16.95
2023-08-29T01:07:49.554Z,16.96
2023-08-29T01:08:00.676Z,16.93
2023-08-29T01:08:11.583Z,16.95
2023-08-29T01:08:22.353Z,16.93
2023-08-29T01:08:33.391Z,16.93
2023-08-29T01:08:44.360Z,16.95
2023-08-29T01:08:55.121Z,16.95
2023-08-29T01:09:06.166Z,16.99
2023-08-29T01:09:17.132Z,16.93
2023-08-29T01:09:27.901Z,17.00
2023-08-29T01:09:38.944Z,16.95
2023-08-29T01:09:49.910Z,16.95
2023-08-29T01:10:00.689Z,16.98
2023-08-29T01:10:11.764Z,16.96
2023-08-29T01:10:22.735Z,16.95
2023-08-29T01:10:33.520Z,16.96
2023-08-29T01:10:44.559Z,16.96
2023-08-29T01:10:55.524Z,16.92
2023-08-29T01:11:06.298Z,16.99
2023-08-29T01:11:17.375Z,16.96
2023-08-29T01:11:28.355Z,16.99
2023-08-29T01:11:39.123Z,17.00
2023-08-29T01:11:50.165Z,16.99
2023-08-29T01:12:01.142Z,16.98
2023-08-29T01:12:11.900Z,17.03
2023-08-29T01:12:22.945Z,16.99
2023-08-29T01:12:33.908Z,16.99
2023-08-29T01:12:44.678Z,17.00
2023-08-29T01:12:55.720Z,17.04
2023-08-29T01:13:06.685Z,17.03
2023-08-29T01:13:17.460Z,17.00
2023-08-29T01:13:28.497Z,16.98
2023-08-29T01:13:39.489Z,17.03
2023-08-29T01:13:50.230Z,17.07
2023-08-29T01:14:01.277Z,17.04
2023-08-29T01:14:12.239Z,16.99
2023-08-29T01:14:23.001Z,17.00
2023-08-29T01:14:34.051Z,17.04
2023-08-29T01:14:45.013Z,17.00
2023-08-29T01:14:55.772Z,17.08
2023-08-29T01:15:06.831Z,17.00
2023-08-29T01:15:17.799Z,17.06
2023-08-29T01:15:28.562Z,17.03
2023-08-29T01:15:39.635Z,17.04
2023-08-29T01:15:50.602Z,17.04
2023-08-29T01:16:01.376Z,17.00
2023-08-29T01:16:12.419Z,17.03
2023-08-29T01:16:23.398Z,17.04
2023-08-29T01:16:34.166Z,17.03
2023-08-29T01:16:45.212Z,16.99
2023-08-29T01:16:56.172Z,17.03
2023-08-29T01:17:06.937Z,17.06
2023-08-29T01:17:17.985Z,17.00
2023-08-29T01:17:28.991Z,17.03
2023-08-29T01:17:39.779Z,17.03
2023-08-29T01:17:50.797Z,17.03
2023-08-29T01:18:01.830Z,17.03
2023-08-29T01:18:12.620Z,17.07
2023-08-29T01:18:23.642Z,17.00
2023-08-29T01:18:34.610Z,17.00
2023-08-29T01:18:45.391Z,17.03
2023-08-29T01:18:56.456Z,17.06
2023-08-29T01:19:09.723Z,17.03
2023-08-29T01:19:18.254Z,17.07
2023-08-29T01:19:29.311Z,17.00
2023-08-29T01:19:40.265Z,16.99
2023-08-29T01:19:51.034Z,17.04
2023-08-29T01:20:02.119Z,17.00
2023-08-29T01:20:13.062Z,16.99
2023-08-29T01:20:23.829Z,16.99
2023-08-29T01:20:34.859Z,16.98
2023-08-29T01:20:45.823Z,16.96
2023-08-29T01:20:56.593Z,17.04
2023-08-29T01:21:07.637Z,16.99
2023-08-29T01:21:18.607Z,16.95
2023-08-29T01:21:29.372Z,17.03
2023-08-29T01:21:40.411Z,17.03
2023-08-29T01:21:51.374Z,16.99
2023-08-29T01:22:02.166Z,17.00
2023-08-29T01:22:13.181Z,16.96
2023-08-29T01:22:24.145Z,16.96
2023-08-29T01:22:34.912Z,16.96
2023-08-29T01:22:46.552Z,16.95
2023-08-29T01:23:11.684Z,16.99
2023-08-29T01:23:14.886Z,16.98
2023-08-29T01:23:19.923Z,16.96
2023-08-29T01:23:29.805Z,16.99
2023-08-29T01:23:40.572Z,17.03
2023-08-29T01:23:51.623Z,16.92
2023-08-29T01:24:02.589Z,16.98
2023-08-29T01:24:13.345Z,16.96
2023-08-29T01:24:24.385Z,16.93
2023-08-29T01:24:35.353Z,16.93
2023-08-29T01:24:46.118Z,16.96
2023-08-29T01:24:57.164Z,16.93
2023-08-29T01:25:08.149Z,16.93
2023-08-29T01:25:18.938Z,16.98
2023-08-29T01:25:29.974Z,16.93
2023-08-29T01:25:40.951Z,16.90
2023-08-29T01:25:51.726Z,16.93
2023-08-29T01:26:02.761Z,16.92
2023-08-29T01:26:14.388Z,16.93
2023-08-29T01:26:24.569Z,16.90
2023-08-29T01:26:35.591Z,16.92
2023-08-29T01:26:46.566Z,16.95
2023-08-29T01:26:57.324Z,16.93
2023-08-29T01:27:08.373Z,16.95
2023-08-29T01:27:19.336Z,16.90
2023-08-29T01:27:30.099Z,16.92
2023-08-29T01:27:41.144Z,16.93
2023-08-29T01:27:52.107Z,16.92
2023-08-29T01:28:03.131Z,16.96
2023-08-29T01:28:13.830Z,16.95
2023-08-29T01:28:24.814Z,16.92
2023-08-29T01:28:35.554Z,16.93
2023-08-29T01:28:46.610Z,16.92
2023-08-29T01:28:57.562Z,16.92
2023-08-29T01:29:08.335Z,16.95
2023-08-29T01:29:19.373Z,16.89
2023-08-29T01:29:30.347Z,16.93
2023-08-29T01:29:41.108Z,16.90
2023-08-29T01:29:52.149Z,16.90
2023-08-29T01:30:03.113Z,16.89
2023-08-29T01:30:13.891Z,16.89
2023-08-29T01:30:24.941Z,16.88
2023-08-29T01:30:35.901Z,16.90
2023-08-29T01:30:46.678Z,16.89
2023-08-29T01:30:57.738Z,16.90
2023-08-29T01:31:08.717Z,16.86
2023-08-29T01:31:19.499Z,16.86
2023-08-29T01:31:30.604Z,16.89
2023-08-29T01:31:41.111Z,16.86
2023-08-29T01:31:51.837Z,16.88
2023-08-29T01:32:02.878Z,16.85
2023-08-29T01:32:13.847Z,16.85
2023-08-29T01:32:24.618Z,16.83
2023-08-29T01:32:35.691Z,16.85
2023-08-29T01:32:46.690Z,16.88
2023-08-29T01:32:57.440Z,16.83
2023-08-29T01:33:08.478Z,16.86
2023-08-29T01:33:19.447Z,16.80
2023-08-29T01:33:30.195Z,16.81
2023-08-29T01:33:41.263Z,16.81
2023-08-29T01:33:52.207Z,16.83
2023-08-29T01:34:02.979Z,16.81
2023-08-29T01:34:14.052Z,16.77
2023-08-29T01:34:24.989Z,16.81
2023-08-29T01:34:35.771Z,16.81
2023-08-29T01:34:46.790Z,16.81
2023-08-29T01:34:57.756Z,16.83
2023-08-29T01:35:08.518Z,16.86
2023-08-29T01:35:19.574Z,16.85
2023-08-29T01:35:30.536Z,16.78
2023-08-29T01:35:41.302Z,16.80
2023-08-29T01:35:52.370Z,16.81
2023-08-29T01:36:03.318Z,16.80
2023-08-29T01:36:14.095Z,16.81
2023-08-29T01:36:25.132Z,16.85
2023-08-29T01:36:36.100Z,16.80
2023-08-29T01:36:46.862Z,16.80
2023-08-29T01:36:57.911Z,16.80
2023-08-29T01:37:08.872Z,16.80
2023-08-29T01:37:19.643Z,16.83
2023-08-29T01:37:30.679Z,16.80
2023-08-29T01:37:41.650Z,16.80
2023-08-29T01:37:52.414Z,16.81
2023-08-29T01:38:03.771Z,16.80
2023-08-29T01:38:14.363Z,16.78
2023-08-29T01:38:25.136Z,16.81
2023-08-29T01:38:36.174Z,16.77
2023-08-29T01:38:47.138Z,16.78
2023-08-29T01:38:57.902Z,16.81
2023-08-29T01:39:08.946Z,16.80
2023-08-29T01:39:19.911Z,16.83
2023-08-29T01:39:30.686Z,16.81
2023-08-29T01:39:41.729Z,16.78
2023-08-29T01:39:52.697Z,16.77
2023-08-29T01:40:03.463Z,16.77
2023-08-29T01:40:14.509Z,16.77
2023-08-29T01:40:25.485Z,16.78
2023-08-29T01:40:36.252Z,16.78
2023-08-29T01:40:47.320Z,16.78
2023-08-29T01:40:58.265Z,16.80
2023-08-29T01:41:09.027Z,16.80
2023-08-29T01:41:20.067Z,16.77
2023-08-29T01:41:31.044Z,16.75
2023-08-29T01:41:41.794Z,16.81
2023-08-29T01:41:52.842Z,16.75
2023-08-29T01:42:03.818Z,16.77
2023-08-29T01:42:14.569Z,16.80
2023-08-29T01:42:25.615Z,16.74
2023-08-29T01:42:36.578Z,16.77
2023-08-29T01:42:47.341Z,16.77
2023-08-29T01:42:58.385Z,16.75
2023-08-29T01:43:09.361Z,16.77
2023-08-29T01:43:20.125Z,16.78
2023-08-29T01:43:31.161Z,16.77
2023-08-29T01:43:42.137Z,16.78
2023-08-29T01:43:52.892Z,16.75
2023-08-29T01:44:03.964Z,16.77
2023-08-29T01:44:14.917Z,16.80
2023-08-29T01:44:25.688Z,16.80
2023-08-29T01:44:36.727Z,16.74
2023-08-29T01:44:47.698Z,16.77
2023-08-29T01:44:58.516Z,16.78
2023-08-29T01:45:09.555Z,16.78
2023-08-29T01:45:20.594Z,16.80
2023-08-29T01:45:31.443Z,16.85
2023-08-29T01:45:42.215Z,16.78
2023-08-29T01:45:52.773Z,16.77
2023-08-29T01:46:03.591Z,16.83
2023-08-29T01:46:14.633Z,16.80
2023-08-29T01:46:25.596Z,16.77
2023-08-29T01:46:36.349Z,16.78
2023-08-29T01:46:47.407Z,16.81
2023-08-29T01:46:58.371Z,16.81
2023-08-29T01:47:09.129Z,16.81
2023-08-29T01:47:20.169Z,16.78
2023-08-29T01:47:31.141Z,16.80
2023-08-29T01:47:41.923Z,16.83
2023-08-29T01:47:53.001Z,16.75
2023-08-29T01:48:04.568Z,16.80
2023-08-29T01:48:15.044Z,16.78
2023-08-29T01:48:25.695Z,16.78
2023-08-29T01:48:36.616Z,16.80
2023-08-29T01:48:47.388Z,16.85
2023-08-29T01:48:58.426Z,16.78
2023-08-29T01:49:09.390Z,16.77
2023-08-29T01:49:20.158Z,16.80
2023-08-29T01:49:31.212Z,16.81
2023-08-29T01:49:42.180Z,16.78
2023-08-29T01:49:52.955Z,16.80
2023-08-29T01:50:04.016Z,16.78
2023-08-29T01:50:14.974Z,16.75
2023-08-29T01:50:25.743Z,16.77
2023-08-29T01:50:36.787Z,16.80
2023-08-29T01:50:47.752Z,16.77
2023-08-29T01:50:58.522Z,16.75
2023-08-29T01:51:09.569Z,16.74
2023-08-29T01:51:20.540Z,16.77
2023-08-29T01:51:31.301Z,16.77
2023-08-29T01:51:42.347Z,16.75
2023-08-29T01:51:53.309Z,16.77
2023-08-29T01:52:04.082Z,16.77
2023-08-29T01:52:15.117Z,16.75
2023-08-29T01:52:26.085Z,16.80
2023-08-29T01:52:36.851Z,16.75
2023-08-29T01:52:47.894Z,16.75
2023-08-29T01:52:58.855Z,16.73
2023-08-29T01:53:09.622Z,16.78
2023-08-29T01:53:20.665Z,16.73
2023-08-29T01:53:31.641Z,16.74
2023-08-29T01:53:42.475Z,16.73
2023-08-29T01:53:53.517Z,16.70
2023-08-29T01:54:04.485Z,16.71
2023-08-29T01:54:15.251Z,16.71
2023-08-29T01:54:26.312Z,16.73
2023-08-29T01:54:37.281Z,16.70
2023-08-29T01:54:48.052Z,16.74
2023-08-29T01:54:59.123Z,16.74
2023-08-29T01:55:10.071Z,16.70
2023-08-29T01:55:20.840Z,16.71
2023-08-29T01:55:31.882Z,16.71
2023-08-29T01:55:42.870Z,16.68
2023-08-29T01:55:53.630Z,16.68
2023-08-29T01:56:04.662Z,16.71
2023-08-29T01:56:15.626Z,16.68
2023-08-29T01:56:26.389Z,16.75
2023-08-29T01:56:37.460Z,16.68
2023-08-29T01:56:48.404Z,16.73
2023-08-29T01:56:59.169Z,16.68
2023-08-29T01:57:10.229Z,16.68
2023-08-29T01:57:21.172Z,16.65
2023-08-29T01:57:31.945Z,16.68
2023-08-29T01:57:42.982Z,16.67
2023-08-29T01:57:53.952Z,16.65
2023-08-29T01:58:05.094Z,16.70
2023-08-29T01:58:15.731Z,16.65
2023-08-29T01:58:26.705Z,16.67
2023-08-29T01:58:37.476Z,16.67
2023-08-29T01:58:48.519Z,16.67
2023-08-29T01:58:59.491Z,16.65
2023-08-29T01:59:10.252Z,16.68
2023-08-29T01:59:21.303Z,16.65
2023-08-29T01:59:32.258Z,16.63
2023-08-29T01:59:43.030Z,16.65
2023-08-29T01:59:54.078Z,16.65
2023-08-29T02:00:05.051Z,16.65
2023-08-29T02:00:15.821Z,16.63
2023-08-29T02:00:26.866Z,16.60
2023-08-29T02:00:37.820Z,16.68
2023-08-29T02:00:48.650Z,16.63
2023-08-29T02:01:09.793Z,16.65
2023-08-29T02:01:22.564Z,16.67
2023-08-29T02:01:23.748Z,16.63
2023-08-29T02:01:31.763Z,16.65
2023-08-29T02:01:42.764Z,16.63
2023-08-29T02:01:53.514Z,16.67
2023-08-29T02:02:04.101Z,16.67
2023-08-29T02:02:15.050Z,16.67
2023-08-29T02:02:25.916Z,16.60
2023-08-29T02:02:36.486Z,16.62
2023-08-29T02:02:47.446Z,16.60
2023-08-29T02:02:58.220Z,16.68
2023-08-29T02:03:09.302Z,16.60
2023-08-29T02:03:20.259Z,16.63
2023-08-29T02:03:31.024Z,16.62
2023-08-29T02:03:42.062Z,16.59
2023-08-29T02:03:53.087Z,16.68
2023-08-29T02:04:03.868Z,16.63
2023-08-29T02:04:14.897Z,16.63
2023-08-29T02:04:25.848Z,16.62
2023-08-29T02:04:36.654Z,16.65
2023-08-29T02:04:47.687Z,16.62
2023-08-29T02:04:58.643Z,16.59
2023-08-29T02:05:09.421Z,16.60
2023-08-29T02:05:20.461Z,16.63
2023-08-29T02:05:31.424Z,16.63
2023-08-29T02:05:42.193Z,16.60
2023-08-29T02:05:53.236Z,16.62
2023-08-29T02:06:04.202Z,16.65
2023-08-29T02:06:14.972Z,16.63
2023-08-29T02:06:26.016Z,16.62
2023-08-29T02:06:36.974Z,16.62
2023-08-29T02:06:47.745Z,16.59
2023-08-29T02:06:58.791Z,16.63
2023-08-29T02:07:09.752Z,16.59
2023-08-29T02:07:20.515Z,16.67
2023-08-29T02:07:31.563Z,16.60
2023-08-29T02:07:42.527Z,16.62
2023-08-29T02:07:53.308Z,16.65
2023-08-29T02:08:04.631Z,16.59
2023-08-29T02:08:15.298Z,16.60
2023-08-29T02:08:26.066Z,16.65
2023-08-29T02:08:37.114Z,16.59
2023-08-29T02:08:48.088Z,16.65
2023-08-29T02:08:58.873Z,16.65
2023-08-29T02:09:09.898Z,16.65
2023-08-29T02:09:20.861Z,16.62
2023-08-29T02:09:31.622Z,16.62
2023-08-29T02:09:42.666Z,16.62
2023-08-29T02:09:53.643Z,16.59
2023-08-29T02:10:04.421Z,16.62
2023-08-29T02:10:15.460Z,16.63
2023-08-29T02:10:26.424Z,16.59
2023-08-29T02:10:37.187Z,16.63
2023-08-29T02:10:48.224Z,16.62
2023-08-29T02:10:59.196Z,16.63
2023-08-29T02:11:09.964Z,16.59
2023-08-29T02:11:21.005Z,16.60
2023-08-29T02:11:31.964Z,16.58
2023-08-29T02:11:42.751Z,16.62
2023-08-29T02:11:53.777Z,16.60
2023-08-29T02:12:04.737Z,16.59
2023-08-29T02:12:15.503Z,16.60
2023-08-29T02:12:26.550Z,16.60
2023-08-29T02:12:37.513Z,16.59
2023-08-29T02:12:48.284Z,16.62
2023-08-29T02:12:59.325Z,16.60
2023-08-29T02:13:10.292Z,16.60
2023-08-29T02:13:21.048Z,16.63
2023-08-29T02:13:32.091Z,16.59
2023-08-29T02:13:43.060Z,16.58
2023-08-29T02:13:53.849Z,16.62
2023-08-29T02:14:04.866Z,16.58
2023-08-29T02:14:15.853Z,16.63
2023-08-29T02:14:26.618Z,16.60
2023-08-29T02:14:37.676Z,16.60
2023-08-29T02:14:48.653Z,16.58
2023-08-29T02:14:59.419Z,16.60
2023-08-29T02:15:10.478Z,16.62
2023-08-29T02:15:21.428Z,16.56
2023-08-29T02:15:32.191Z,16.63
2023-08-29T02:15:43.230Z,16.59
2023-08-29T02:15:54.193Z,16.63
2023-08-29T02:16:04.969Z,16.62
2023-08-29T02:16:16.034Z,16.59
2023-08-29T02:16:27.040Z,16.62
2023-08-29T02:16:37.793Z,16.62
2023-08-29T02:16:48.877Z,16.59
2023-08-29T02:16:59.878Z,16.60
2023-08-29T02:17:10.635Z,16.59
2023-08-29T02:17:21.674Z,16.58
2023-08-29T02:17:32.679Z,16.59
2023-08-29T02:17:43.491Z,16.59
2023-08-29T02:17:54.112Z,16.63
2023-08-29T02:18:05.388Z,16.60
2023-08-29T02:18:15.876Z,16.60
2023-08-29T02:18:26.343Z,16.60
2023-08-29T02:18:37.294Z,16.58
2023-08-29T02:18:48.054Z,16.65
2023-08-29T02:18:59.103Z,16.58
2023-08-29T02:19:10.080Z,16.62
2023-08-29T02:19:20.845Z,16.62
2023-08-29T02:19:31.875Z,16.60
2023-08-29T02:19:42.850Z,16.59
2023-08-29T02:19:53.616Z,16.60
2023-08-29T02:20:04.661Z,16.60
2023-08-29T02:20:15.633Z,16.59
2023-08-29T02:20:26.401Z,16.63
2023-08-29T02:20:37.448Z,16.60